Hitchcock, Texas
Current Conditions -  °F | °C
As of 11:52 PM on Sunday 25 Jan 2015 (Local Time) from KGLS Reporting Station
Clear Clear  
Wind Chill: 54°   Ceiling: Unl
Heat Index: 54°   Visibility: 10mi
Dew Point: 37°   Wind: 7mph
Humidity: 53%   Direction: 310°NW
Pressure: 30.15"   Gusts: NA
Location:  29.35°N, 95.01°W
Report Text: KGLS 260552Z AUTO 31006KT 10SM CLR 12/03 A3015 RMK AO2 SLP209 T01220028 10156 20111 401940078 51014
Loading
Personal Weather Stations






























Interactive Weather Map New forecast layout! Learn more

10-Day Weather Forecast

Advertisements
Track Severe Weather on mobile